Airfield :
LOGIN :

Register | Disclaimer

   EN    FR    IT 

 










Legend :    VFR   Marginal VFR   IFR   Intensive IFR   Very Intensive IFR
Visi :
Ceiling :
>= 8 km
>= 3000ft
5 to 8 km
1000 to 3000 ft
1500m to 5 km
500 to 1000 ft
800 to 1500m
200 to 500 ft
< 800m
< 200 ft
Symbols :   Thunderstorms  Fog  Heavy snow  Heavy precipitations  Wind > 20 kt
SIGMETs :     Misc.  Thunderstorms  Icing  Turbulence  Mountain Waves  Volcanic Ashes






- Airport Elevation : 1197 ft
- IATA code : SPM


ETAD - Spangdahlem Ab

CURRENT METAR :
  • 241556Z AUTO 22016G24KT 9999 OVC011 09/08 A2984 RMK AO2 PK WND 22029/33 RAB02E26 SLP103 P0001 T00880082 $

EXPIRED METARs :
  • 241541Z AUTO 21019G29KT 9999 OVC010 09/09 A2984 RMK AO2 RAB02E26 CIG 008V010 OVC V BKN CIG 008 RWY05 SLP103 $
  • 241526Z AUTO 22017G28KT 9999 OVC008 09/09 A2985 RMK AO2 RAB02E26 PRESFR SLP106 $
  • 241502Z AUTO 22018G31KT 9999 -RA OVC008 09/09 A2988 RMK AO2 RAB02 SLP117 $
  • 241456Z AUTO 21022G31KT 9999 OVC008 09/09 A2988 RMK AO2 SLP117 60000 T00910088 57041 $
  • 241426Z AUTO 21018G24KT 9999 OVC007 09/09 A2989 RMK AO2 CIG 005V007 SLP120 $
  • 241411Z AUTO 22017G20KT 9999 OVC005 09/09 A2990 RMK AO2 SLP124 $
  • 241356Z AUTO 22015KT 9999 OVC004 09/09 A2991 RMK AO2 SLP127 T00900090 $
  • 241341Z AUTO 22014KT 9999 OVC003 09/09 A2992 RMK AO2 SLP130 $
  • 241311Z AUTO 20011KT 9999 OVC002 08/08 A2994 RMK AO2 PRESFR SLP139 $

TAF AMD TAF ETAD
Valid from the 24 at 14:00 until the 25 at 19:00 UTC


241445Z 2414/2519 20015G25KT 9999 OVC007 QNH2991INS
TEMPO 2415/2418 23020G30KT 530009
BECMG 2417/2418 23015G25KT 6000 -SHRA BR BKN007 OVC010 QNH2978INS
BECMG 2421/2422 23015G25KT 6000 -SHRA BR BKN010 OVC015 QNH2974INS
BECMG 2505/2506 24010G15KT 8000 -SHRA SCT010 BKN015 QNH2967INS
BECMG 2509/2510 27012G18KT 9999 NSW BKN017 QNH2968INS TX09/2415Z TN06/2509Z



MET'MAP, your aeronautical weather chart ! - Copyright ORBIFLY December 2007 - Disclaimer

ORBIFLY MET'MAP TEAM :

Programming & Development : Alexandra Zaïnal
Concept & original design : Baudouin d'Aumeries
Assistance for programming : Marc-Olivier Méhu
Technical & hardware support : Manuel Goepfert

Contact : metmap@orbifly.com




SOURCES & CREDITS :

   NOAA